Time;durP1;ratioP1;P1;durP2;ratioP2;P2;SDS_P1;SDS_P2;PMS_P1;PMS_P2;Temp;Humidity;BMP_temperature;BMP_pressure;BME280_temperature;BME280_humidity;BME280_pressure;Samples;Min_cycle;Max_cycle;Signal;HPM_P1;HPM_P2
2021/10/08 00:00:17;;;;;;;22.85;9.45;;;9.70;99.90;;;;;;5007184;28;20116;-86
2021/10/08 00:02:44;;;;;;;21.63;9.20;;;9.70;99.90;;;;;;5001847;28;20644;-86
2021/10/08 00:05:11;;;;;;;20.17;9.55;;;9.70;99.90;;;;;;5005954;28;20050;-86
2021/10/08 00:07:38;;;;;;;22.02;9.80;;;9.70;99.90;;;;;;5008137;28;20133;-86
2021/10/08 00:10:06;;;;;;;13.57;8.55;;;9.70;99.90;;;;;;5002943;28;20041;-86
2021/10/08 00:12:33;;;;;;;14.48;9.93;;;9.70;99.90;;;;;;5007470;28;20177;-86
2021/10/08 00:15:00;;;;;;;15.75;8.50;;;9.70;99.90;;;;;;5006281;28;20053;-87
2021/10/08 00:17:27;;;;;;;15.25;9.23;;;9.70;99.90;;;;;;4988296;28;20053;-87
2021/10/08 00:19:54;;;;;;;13.68;9.57;;;9.70;99.90;;;;;;4989240;28;20080;-87
2021/10/08 00:22:21;;;;;;;20.42;10.77;;;9.70;99.90;;;;;;5004570;28;20046;-87
2021/10/08 00:24:48;;;;;;;17.80;8.90;;;9.70;99.90;;;;;;4991115;28;20065;-87
2021/10/08 00:27:15;;;;;;;21.85;8.95;;;9.70;99.90;;;;;;5006970;28;20443;-87
2021/10/08 00:29:42;;;;;;;22.42;9.02;;;9.60;99.90;;;;;;5007522;28;20045;-86
2021/10/08 00:32:09;;;;;;;11.27;7.97;;;9.60;99.90;;;;;;4986707;28;20096;-86
2021/10/08 00:34:36;;;;;;;16.27;9.23;;;9.60;99.90;;;;;;5006316;28;20048;-86
2021/10/08 00:37:03;;;;;;;11.50;7.95;;;9.60;99.90;;;;;;5005193;28;20057;-86
2021/10/08 00:39:30;;;;;;;9.98;7.32;;;9.60;99.90;;;;;;4989025;28;20050;-86
2021/10/08 00:41:58;;;;;;;10.38;8.88;;;9.60;99.90;;;;;;5002025;28;20054;-86
2021/10/08 00:44:29;;;;;;;7.63;6.88;;;9.60;99.90;;;;;;4991028;28;20611;-86
2021/10/08 00:46:57;;;;;;;23.60;7.90;;;9.60;99.90;;;;;;4989681;28;20045;-87
2021/10/08 00:49:24;;;;;;;37.50;9.55;;;9.60;99.90;;;;;;5004975;28;20050;-86
2021/10/08 00:51:52;;;;;;;26.92;8.90;;;9.60;99.90;;;;;;5004456;28;20042;-87
2021/10/08 00:54:18;;;;;;;22.23;8.75;;;9.60;99.90;;;;;;5006298;28;20046;-87
2021/10/08 00:56:45;;;;;;;25.45;9.20;;;9.50;99.90;;;;;;4985958;28;20061;-87
2021/10/08 00:59:13;;;;;;;23.15;10.75;;;9.50;99.90;;;;;;4986405;28;20057;-86
2021/10/08 01:01:40;;;;;;;11.18;7.93;;;9.60;99.90;;;;;;4999197;28;20058;-88
2021/10/08 01:04:08;;;;;;;12.68;8.18;;;9.60;99.90;;;;;;4995790;28;20758;-87
2021/10/08 01:06:35;;;;;;;18.83;9.63;;;9.60;99.90;;;;;;5007564;28;20054;-88
2021/10/08 01:09:02;;;;;;;37.83;9.65;;;9.60;99.90;;;;;;5002015;28;20042;-88
2021/10/08 01:11:30;;;;;;;7.70;6.95;;;9.60;99.90;;;;;;4986782;28;21027;-88
2021/10/08 01:14:02;;;;;;;9.27;7.40;;;9.50;99.90;;;;;;4988059;28;20053;-88
2021/10/08 01:16:32;;;;;;;19.73;9.45;;;9.60;99.90;;;;;;4988038;28;20061;-87
2021/10/08 01:18:59;;;;;;;8.93;7.00;;;9.60;99.90;;;;;;5008193;28;20449;-88
2021/10/08 01:21:27;;;;;;;11.85;7.68;;;9.60;99.90;;;;;;4971259;28;20097;-88
2021/10/08 01:23:54;;;;;;;25.17;9.55;;;9.50;99.90;;;;;;5005859;28;20056;-88
2021/10/08 01:26:21;;;;;;;24.67;8.70;;;9.60;99.90;;;;;;4988729;28;20044;-88
2021/10/08 01:28:49;;;;;;;25.50;8.88;;;9.50;99.90;;;;;;4987476;28;20042;-88
2021/10/08 01:31:18;;;;;;;40.67;9.15;;;9.50;99.90;;;;;;4982680;28;20049;-88
2021/10/08 01:33:50;;;;;;;25.42;6.85;;;9.50;99.90;;;;;;4986149;28;20374;-88
2021/10/08 01:36:17;;;;;;;34.85;8.18;;;9.50;99.90;;;;;;4981282;28;20649;-88
2021/10/08 01:38:47;;;;;;;23.15;7.05;;;9.50;99.90;;;;;;5004805;28;20108;-88
2021/10/08 01:41:14;;;;;;;22.10;7.55;;;9.50;99.90;;;;;;4987774;28;20400;-88
2021/10/08 01:43:41;;;;;;;28.20;7.97;;;9.50;99.90;;;;;;5002904;28;20153;-88
2021/10/08 01:46:09;;;;;;;18.70;5.70;;;9.50;99.90;;;;;;4986336;28;20653;-88
2021/10/08 01:48:37;;;;;;;12.20;7.30;;;9.50;99.90;;;;;;4957404;28;20046;-88
2021/10/08 01:51:05;;;;;;;31.73;8.00;;;9.50;99.90;;;;;;4997600;28;20075;-88
2021/10/08 01:53:35;;;;;;;9.25;5.97;;;9.50;99.90;;;;;;5004214;28;20046;-88
2021/10/08 01:56:02;;;;;;;11.95;6.55;;;9.50;99.90;;;;;;4986886;28;20097;-89
2021/10/08 01:58:41;;;;;;;8.35;6.45;;;9.40;99.90;;;;;;4971609;28;20145;-89
2021/10/08 02:01:08;;;;;;;8.02;5.85;;;9.50;99.90;;;;;;5004861;28;20415;-88
2021/10/08 02:03:36;;;;;;;22.50;8.43;;;9.50;99.90;;;;;;4970782;28;20052;-89
2021/10/08 02:06:04;;;;;;;21.00;7.05;;;9.50;99.90;;;;;;4983729;28;20037;-89
2021/10/08 02:08:34;;;;;;;9.57;5.97;;;9.50;99.90;;;;;;4985678;28;20125;-89
2021/10/08 02:11:07;;;;;;;15.90;6.93;;;9.60;99.90;;;;;;4984292;28;20057;-89
2021/10/08 02:13:36;;;;;;;21.70;7.43;;;9.60;99.90;;;;;;4999079;28;20211;-89
2021/10/08 02:16:04;;;;;;;48.00;8.65;;;9.60;99.90;;;;;;4983064;28;21334;-89
2021/10/08 02:18:31;;;;;;;12.32;6.93;;;9.60;99.90;;;;;;4985842;28;20042;-89
2021/10/08 02:21:00;;;;;;;9.35;6.40;;;9.60;99.90;;;;;;4985995;28;20129;-89
2021/10/08 02:23:31;;;;;;;7.00;6.30;;;9.60;99.90;;;;;;4986911;28;20073;-89
2021/10/08 02:25:59;;;;;;;8.88;6.93;;;9.60;99.90;;;;;;4984766;28;20041;-89
2021/10/08 02:28:26;;;;;;;14.23;8.35;;;9.60;99.90;;;;;;4997152;28;20060;-89
2021/10/08 02:30:54;;;;;;;14.15;7.60;;;9.60;99.90;;;;;;4988332;28;20049;-89
2021/10/08 02:33:25;;;;;;;15.90;7.70;;;9.60;99.90;;;;;;4955343;28;20063;-89
2021/10/08 02:35:52;;;;;;;21.48;6.85;;;9.60;99.90;;;;;;4977403;28;20100;-89
2021/10/08 02:38:20;;;;;;;6.25;5.57;;;9.60;99.90;;;;;;4978833;28;20129;-89
2021/10/08 02:40:47;;;;;;;13.45;5.53;;;9.60;99.90;;;;;;4988259;28;20137;-89
2021/10/08 02:43:14;;;;;;;24.50;7.43;;;9.60;99.90;;;;;;4981916;28;20044;-89
2021/10/08 02:45:42;;;;;;;8.20;4.95;;;9.50;99.90;;;;;;4982185;28;20104;-87
2021/10/08 02:48:09;;;;;;;13.73;6.22;;;9.50;99.90;;;;;;4985091;28;20042;-87
2021/10/08 02:50:36;;;;;;;6.90;5.55;;;9.60;99.90;;;;;;5003409;28;20824;-86
2021/10/08 02:53:07;;;;;;;7.10;4.15;;;9.50;99.90;;;;;;5001569;28;20072;-87
2021/10/08 02:55:35;;;;;;;13.73;7.65;;;9.50;99.90;;;;;;4985629;28;20237;-86
2021/10/08 02:58:02;;;;;;;7.30;4.80;;;9.50;99.90;;;;;;5001839;28;20049;-87
2021/10/08 03:00:33;;;;;;;24.08;6.30;;;9.50;99.90;;;;;;4964932;28;20486;-89
2021/10/08 03:03:00;;;;;;;12.48;6.03;;;9.50;99.90;;;;;;5004233;28;20026;-89
2021/10/08 03:05:27;;;;;;;5.90;4.82;;;9.50;99.90;;;;;;5003553;28;20738;-89
2021/10/08 03:07:54;;;;;;;19.08;7.25;;;9.50;99.90;;;;;;4988502;28;20041;-89
2021/10/08 03:10:21;;;;;;;8.82;5.90;;;9.50;99.90;;;;;;4984378;28;20046;-89
2021/10/08 03:12:49;;;;;;;17.65;4.90;;;9.50;99.90;;;;;;4988028;28;20046;-89
2021/10/08 03:15:17;;;;;;;12.98;5.32;;;9.50;99.90;;;;;;4986647;28;20063;-89
2021/10/08 03:17:44;;;;;;;14.30;6.00;;;9.50;99.90;;;;;;4983123;28;20045;-89
2021/10/08 03:20:11;;;;;;;7.03;5.70;;;9.50;99.90;;;;;;4985095;28;20500;-89
2021/10/08 03:22:40;;;;;;;7.68;5.70;;;9.50;99.90;;;;;;4987021;28;20042;-89
2021/10/08 03:25:08;;;;;;;14.00;5.00;;;9.50;99.90;;;;;;4998222;28;20104;-89
2021/10/08 03:27:37;;;;;;;11.57;4.60;;;9.50;99.90;;;;;;4985447;28;20045;-89
2021/10/08 03:30:06;;;;;;;14.65;5.57;;;9.40;99.90;;;;;;5000494;28;20676;-88
2021/10/08 03:32:35;;;;;;;15.63;5.53;;;9.50;99.90;;;;;;5003724;28;20067;-88
2021/10/08 03:35:03;;;;;;;15.95;6.65;;;9.50;99.90;;;;;;4971373;28;20100;-88
2021/10/08 03:37:44;;;;;;;10.30;4.10;;;9.50;99.90;;;;;;4987239;28;20100;-88
2021/10/08 03:40:20;;;;;;;4.85;4.22;;;9.40;99.90;;;;;;4996606;28;20447;-88
2021/10/08 03:42:47;;;;;;;15.23;6.38;;;9.40;99.90;;;;;;4984785;28;20050;-88
2021/10/08 03:45:15;;;;;;;22.55;5.25;;;9.40;99.90;;;;;;4985702;28;20128;-88
2021/10/08 03:50:26;;;;;;;11.07;5.25;;;9.40;99.90;;;;;;4983751;28;20137;-88
2021/10/08 03:52:53;;;;;;;8.98;5.00;;;9.40;99.90;;;;;;5004116;28;20104;-88
2021/10/08 03:55:20;;;;;;;7.15;5.30;;;9.40;99.90;;;;;;4967848;28;20426;-89
2021/10/08 03:57:47;;;;;;;10.85;5.78;;;9.40;99.90;;;;;;5005455;28;20050;-88
2021/10/08 04:00:15;;;;;;;15.98;5.85;;;9.40;99.90;;;;;;4983808;28;20771;-88
2021/10/08 04:02:42;;;;;;;7.65;4.88;;;9.40;99.90;;;;;;5004961;28;20046;-88
2021/10/08 04:05:12;;;;;;;13.35;6.07;;;9.40;99.90;;;;;;4987224;28;20692;-88
2021/10/08 04:07:40;;;;;;;5.40;4.80;;;9.40;99.90;;;;;;4986879;28;20112;-88
2021/10/08 04:10:07;;;;;;;12.15;6.20;;;9.40;99.90;;;;;;4971227;28;20042;-88
2021/10/08 04:12:34;;;;;;;6.05;5.00;;;9.40;99.90;;;;;;4984698;28;20035;-88
2021/10/08 04:15:03;;;;;;;6.65;5.60;;;9.40;99.90;;;;;;4980949;28;20102;-88
2021/10/08 04:17:30;;;;;;;15.73;6.50;;;9.40;99.90;;;;;;4976478;28;20439;-89
2021/10/08 04:19:57;;;;;;;13.23;5.40;;;9.40;99.90;;;;;;5001563;28;20038;-88
2021/10/08 04:22:24;;;;;;;8.50;5.60;;;9.40;99.90;;;;;;4968344;28;20049;-89
2021/10/08 04:24:51;;;;;;;10.55;5.38;;;9.40;99.90;;;;;;4983347;28;20069;-89
2021/10/08 04:27:18;;;;;;;6.32;4.97;;;9.40;99.90;;;;;;4989204;28;20640;-89
2021/10/08 04:29:46;;;;;;;6.53;4.00;;;9.30;99.90;;;;;;4989241;28;20049;-89
2021/10/08 04:32:13;;;;;;;10.77;4.78;;;9.40;99.90;;;;;;4988123;28;20042;-89
2021/10/08 04:34:41;;;;;;;6.50;5.47;;;9.30;99.90;;;;;;4999174;28;20104;-88
2021/10/08 04:37:10;;;;;;;12.57;6.40;;;9.30;99.90;;;;;;4966540;28;20050;-89
2021/10/08 04:39:38;;;;;;;11.02;5.63;;;9.30;99.90;;;;;;4970702;28;20061;-89
2021/10/08 04:42:05;;;;;;;7.85;5.35;;;9.30;99.90;;;;;;4998374;28;20134;-88
2021/10/08 04:44:33;;;;;;;11.18;6.47;;;9.30;99.90;;;;;;4986122;28;20042;-88
2021/10/08 04:47:03;;;;;;;10.63;6.63;;;9.30;99.90;;;;;;4974267;28;20136;-88
2021/10/08 04:49:30;;;;;;;17.23;5.90;;;9.20;99.90;;;;;;4988272;28;20489;-88
2021/10/08 04:51:58;;;;;;;7.50;5.68;;;9.20;99.90;;;;;;4986464;28;20046;-88
2021/10/08 04:54:25;;;;;;;8.75;5.95;;;9.20;99.90;;;;;;5006604;28;20049;-88
2021/10/08 04:56:51;;;;;;;14.48;5.90;;;9.20;99.90;;;;;;4997529;28;20042;-88
2021/10/08 04:59:19;;;;;;;31.70;6.85;;;9.10;99.90;;;;;;4988542;28;20467;-87
2021/10/08 05:01:47;;;;;;;8.30;6.30;;;9.00;99.90;;;;;;4987936;28;20225;-87
2021/10/08 05:04:13;;;;;;;4.75;4.25;;;9.10;99.90;;;;;;4985915;28;20049;-87
2021/10/08 05:06:41;;;;;;;11.82;5.25;;;9.10;99.90;;;;;;4987775;28;20053;-88
2021/10/08 05:09:08;;;;;;;7.03;4.63;;;9.00;99.90;;;;;;4989736;28;20049;-87
2021/10/08 05:11:35;;;;;;;11.55;6.20;;;9.00;99.90;;;;;;4962281;28;20487;-88
2021/10/08 05:14:03;;;;;;;17.60;6.32;;;9.00;99.90;;;;;;4986980;28;20145;-88
2021/10/08 05:16:35;;;;;;;42.95;7.72;;;9.00;99.90;;;;;;4987970;28;20077;-88
2021/10/08 05:19:02;;;;;;;6.22;5.43;;;9.00;99.90;;;;;;4972883;28;20058;-88
2021/10/08 05:21:31;;;;;;;8.35;5.43;;;9.00;99.90;;;;;;5005073;28;20083;-88
2021/10/08 05:23:58;;;;;;;8.05;5.07;;;9.00;99.90;;;;;;4987401;28;20053;-88
2021/10/08 05:26:25;;;;;;;6.53;4.68;;;9.00;99.90;;;;;;5002240;28;20097;-88
2021/10/08 05:28:52;;;;;;;18.77;5.63;;;9.00;99.90;;;;;;4987750;28;20129;-88
2021/10/08 05:31:20;;;;;;;10.13;5.60;;;9.00;99.90;;;;;;4971357;28;20042;-88
2021/10/08 05:33:48;;;;;;;7.18;4.82;;;9.00;99.90;;;;;;4985957;28;20066;-88
2021/10/08 05:36:15;;;;;;;32.03;6.50;;;9.00;99.90;;;;;;5004103;28;20137;-87
2021/10/08 05:38:42;;;;;;;14.00;5.72;;;9.00;99.90;;;;;;5001237;28;20145;-88
2021/10/08 05:41:12;;;;;;;5.70;5.10;;;9.00;99.90;;;;;;4986419;28;20056;-87
2021/10/08 05:43:41;;;;;;;16.55;4.53;;;9.00;99.90;;;;;;5004188;28;20164;-87
2021/10/08 05:46:08;;;;;;;5.53;4.40;;;9.10;99.90;;;;;;4986922;28;21079;-87
2021/10/08 05:48:36;;;;;;;8.55;4.50;;;9.00;99.90;;;;;;4993404;28;20517;-87
2021/10/08 05:51:05;;;;;;;10.73;5.05;;;9.00;99.90;;;;;;4987268;28;20145;-87
2021/10/08 05:53:32;;;;;;;27.80;7.03;;;9.10;99.90;;;;;;4987789;28;20084;-88
2021/10/08 05:55:59;;;;;;;12.60;4.85;;;9.00;99.90;;;;;;4986921;28;20045;-88
2021/10/08 05:58:26;;;;;;;18.08;5.88;;;9.00;99.90;;;;;;4986568;28;20672;-87
2021/10/08 06:00:53;;;;;;;6.30;5.60;;;9.00;99.90;;;;;;4988439;28;20042;-87
2021/10/08 06:03:20;;;;;;;8.13;6.47;;;9.00;99.90;;;;;;5003824;28;20530;-87
2021/10/08 06:05:47;;;;;;;21.63;6.53;;;9.00;99.90;;;;;;4973017;28;20061;-87
2021/10/08 06:08:15;;;;;;;7.18;5.43;;;9.00;99.90;;;;;;4972453;28;20042;-87
2021/10/08 06:10:46;;;;;;;10.35;7.03;;;9.10;99.90;;;;;;5004973;28;20101;-87
2021/10/08 06:13:14;;;;;;;10.50;6.90;;;9.10;99.90;;;;;;5003921;28;20129;-87
2021/10/08 06:15:42;;;;;;;7.68;5.15;;;9.10;99.90;;;;;;4986888;28;20050;-88
2021/10/08 06:18:10;;;;;;;18.20;6.55;;;9.10;99.90;;;;;;4985144;28;20137;-87
2021/10/08 06:20:38;;;;;;;7.38;5.60;;;9.10;99.90;;;;;;4980235;28;20074;-87
2021/10/08 06:23:10;;;;;;;12.88;6.00;;;9.10;99.90;;;;;;4979132;28;20429;-88
2021/10/08 06:25:37;;;;;;;9.30;6.15;;;9.20;99.90;;;;;;4986540;28;20107;-87
2021/10/08 06:28:06;;;;;;;6.82;6.13;;;9.20;99.90;;;;;;4988044;28;20034;-87
2021/10/08 06:30:34;;;;;;;13.18;6.13;;;9.30;99.90;;;;;;4990528;28;20121;-87
2021/10/08 06:33:01;;;;;;;9.52;4.95;;;9.30;99.90;;;;;;4988379;28;20491;-87
2021/10/08 06:35:32;;;;;;;9.25;5.10;;;9.30;99.90;;;;;;4986687;28;20537;-87
2021/10/08 06:37:59;;;;;;;;;;;9.30;99.90;;;;;;4994678;28;20102;-87
2021/10/08 06:40:28;;;;;;;6.60;5.07;;;9.30;99.90;;;;;;4968109;28;20017;-87
2021/10/08 06:42:57;;;;;;;25.00;6.97;;;9.30;99.90;;;;;;4977385;28;20087;-87
2021/10/08 06:45:38;;;;;;;7.10;6.40;;;9.40;99.90;;;;;;4950614;28;20397;-87
2021/10/08 06:48:08;;;;;;;12.27;5.25;;;9.40;99.90;;;;;;4965235;28;20165;-87
2021/10/08 06:50:38;;;;;;;7.03;5.03;;;9.40;99.90;;;;;;4953625;28;20395;-87
2021/10/08 06:53:05;;;;;;;7.47;5.57;;;9.40;99.90;;;;;;4964030;28;20101;-87
2021/10/08 06:55:33;;;;;;;14.27;6.47;;;9.40;99.90;;;;;;4970657;28;20635;-87
2021/10/08 06:58:00;;;;;;;11.05;4.43;;;9.40;99.90;;;;;;4961615;28;20054;-87
2021/10/08 07:00:28;;;;;;;8.93;5.00;;;9.40;99.90;;;;;;4962959;28;20049;-87
2021/10/08 07:02:57;;;;;;;7.85;6.32;;;9.40;99.90;;;;;;4975791;28;20376;-87
2021/10/08 07:05:29;;;;;;;6.95;4.80;;;9.50;99.90;;;;;;4971087;28;20046;-87
2021/10/08 07:07:58;;;;;;;9.48;5.75;;;9.50;99.90;;;;;;4964459;28;20445;-87
2021/10/08 07:10:26;;;;;;;6.65;5.90;;;9.50;99.90;;;;;;4967380;28;20042;-87
2021/10/08 07:12:53;;;;;;;9.18;5.95;;;9.60;99.90;;;;;;4958780;28;20073;-87
2021/10/08 07:15:21;;;;;;;8.32;5.88;;;9.70;99.90;;;;;;4983439;28;20042;-87
2021/10/08 07:17:50;;;;;;;15.02;7.07;;;9.70;99.90;;;;;;4986642;28;20518;-87
2021/10/08 07:20:20;;;;;;;6.57;5.65;;;9.70;99.90;;;;;;4983910;28;20058;-87
2021/10/08 07:22:48;;;;;;;9.55;5.15;;;9.70;99.90;;;;;;4975265;28;20047;-87
2021/10/08 07:25:15;;;;;;;16.15;5.57;;;9.80;99.90;;;;;;4988785;28;20557;-87
2021/10/08 07:27:45;;;;;;;10.07;4.95;;;9.70;99.90;;;;;;4979769;28;20057;-87
2021/10/08 07:30:13;;;;;;;9.75;5.30;;;9.70;99.90;;;;;;4983881;28;20043;-87
2021/10/08 07:32:41;;;;;;;10.48;5.38;;;9.80;99.90;;;;;;4968005;28;20042;-87
2021/10/08 07:35:09;;;;;;;6.55;5.63;;;9.80;99.90;;;;;;4970507;28;20046;-87
2021/10/08 07:37:37;;;;;;;6.45;5.47;;;10.00;99.90;;;;;;4996761;28;20122;-87
2021/10/08 07:40:06;;;;;;;7.85;5.53;;;10.00;99.90;;;;;;4998934;28;20054;-87
2021/10/08 07:42:35;;;;;;;10.82;6.18;;;10.10;99.90;;;;;;5000388;28;20053;-87
2021/10/08 07:45:15;;;;;;;6.10;5.50;;;10.10;99.90;;;;;;4999871;28;20491;-87
2021/10/08 07:47:42;;;;;;;6.60;5.85;;;10.00;99.90;;;;;;4979337;28;20073;-87
2021/10/08 07:50:10;;;;;;;8.05;5.93;;;10.10;99.90;;;;;;4997742;28;20137;-87
2021/10/08 07:52:38;;;;;;;7.28;5.72;;;10.10;99.90;;;;;;5003492;28;20050;-87
2021/10/08 07:55:06;;;;;;;6.72;6.05;;;10.20;99.90;;;;;;5002772;28;20058;-87
2021/10/08 07:57:34;;;;;;;6.60;5.90;;;10.20;99.90;;;;;;5003181;28;20094;-87
2021/10/08 08:00:03;;;;;;;5.30;4.80;;;10.20;99.90;;;;;;5007620;28;20077;-87
2021/10/08 08:02:38;;;;;;;6.82;6.13;;;10.20;99.90;;;;;;4989651;28;20038;-87
2021/10/08 08:05:05;;;;;;;6.10;5.28;;;10.30;99.90;;;;;;5009061;28;20041;-87
2021/10/08 08:07:32;;;;;;;6.45;5.75;;;10.30;99.90;;;;;;4999571;28;20047;-87
2021/10/08 08:09:59;;;;;;;9.55;6.25;;;10.40;99.90;;;;;;5002287;28;20046;-87
2021/10/08 08:12:29;;;;;;;6.53;5.80;;;10.50;99.90;;;;;;4995161;28;20484;-90
2021/10/08 08:15:01;;;;;;;8.90;6.53;;;10.50;99.90;;;;;;4969135;28;20065;-88
2021/10/08 08:17:29;;;;;;;8.52;7.07;;;10.60;99.90;;;;;;4960591;28;20042;-89
2021/10/08 08:19:56;;;;;;;7.70;7.00;;;10.60;99.90;;;;;;4974095;28;20056;-88
2021/10/08 08:22:23;;;;;;;7.38;6.63;;;10.60;99.90;;;;;;4981991;28;20050;-89
2021/10/08 08:24:50;;;;;;;8.90;7.20;;;10.70;99.90;;;;;;5004362;28;20065;-89
2021/10/08 08:27:18;;;;;;;7.65;6.45;;;10.80;99.90;;;;;;4990247;28;20553;-89
2021/10/08 08:29:45;;;;;;;7.43;6.72;;;10.80;99.90;;;;;;5006364;28;20042;-89
2021/10/08 08:32:12;;;;;;;6.50;5.90;;;10.90;99.90;;;;;;5004977;28;20521;-89
2021/10/08 08:34:39;;;;;;;9.88;7.10;;;10.90;99.90;;;;;;4990027;28;20384;-89
2021/10/08 08:37:07;;;;;;;8.27;6.63;;;10.90;99.90;;;;;;4985942;28;20046;-89
2021/10/08 08:39:38;;;;;;;7.00;6.30;;;10.90;99.90;;;;;;4989578;28;20505;-89
2021/10/08 08:42:09;;;;;;;8.57;6.97;;;11.00;99.90;;;;;;5006223;28;20527;-88
2021/10/08 08:44:38;;;;;;;6.88;6.18;;;11.00;99.90;;;;;;5006988;28;20057;-89
2021/10/08 08:47:07;;;;;;;8.63;7.72;;;11.00;99.90;;;;;;4989685;28;20053;-89
2021/10/08 08:49:36;;;;;;;8.25;7.28;;;11.00;99.90;;;;;;5005780;28;20053;-89
2021/10/08 08:52:03;;;;;;;12.02;7.68;;;11.20;99.90;;;;;;4988506;28;20049;-89
2021/10/08 08:54:30;;;;;;;10.10;7.30;;;11.10;99.90;;;;;;4992612;28;20740;-89
2021/10/08 08:56:57;;;;;;;7.82;6.60;;;11.10;99.90;;;;;;4988052;28;20483;-88
2021/10/08 08:59:24;;;;;;;7.55;6.75;;;11.10;99.90;;;;;;5014334;28;20038;-88
2021/10/08 09:02:04;;;;;;;9.63;8.65;;;11.10;99.90;;;;;;4969020;28;20672;-88
2021/10/08 09:04:33;;;;;;;9.00;8.15;;;11.20;99.90;;;;;;4989248;28;20425;-89
2021/10/08 09:07:00;;;;;;;8.52;7.65;;;11.30;99.90;;;;;;4994509;28;20057;-88
2021/10/08 09:09:27;;;;;;;9.27;7.68;;;11.30;99.90;;;;;;4986292;28;20637;-88
2021/10/08 09:11:55;;;;;;;8.93;7.80;;;11.40;99.90;;;;;;5004147;28;20052;-89
2021/10/08 09:14:28;;;;;;;7.65;6.80;;;11.40;99.90;;;;;;4998731;28;20046;-88
2021/10/08 09:17:09;;;;;;;10.48;8.82;;;11.40;99.90;;;;;;5000526;28;20115;-89
2021/10/08 09:19:53;;;;;;;9.55;7.28;;;11.40;99.90;;;;;;4973394;28;20535;-88
2021/10/08 09:22:36;;;;;;;7.93;6.30;;;11.30;99.90;;;;;;4984294;28;20157;-88
2021/10/08 09:25:21;;;;;;;7.15;6.53;;;11.30;99.90;;;;;;5007104;28;20379;-89
2021/10/08 09:27:55;;;;;;;7.50;6.18;;;11.30;99.90;;;;;;4974599;28;20046;-88
2021/10/08 09:30:43;;;;;;;7.72;6.90;;;11.40;99.90;;;;;;4966315;28;20422;-88
2021/10/08 09:33:13;;;;;;;6.80;6.10;;;11.50;99.90;;;;;;4944783;28;20600;-88
2021/10/08 09:35:42;;;;;;;7.00;6.30;;;11.50;99.90;;;;;;4977543;28;20056;-89
2021/10/08 09:38:14;;;;;;;8.10;7.30;;;11.50;99.90;;;;;;4930728;28;20060;-88
2021/10/08 09:40:57;;;;;;;7.93;7.10;;;11.40;99.90;;;;;;4981237;28;20064;-88
2021/10/08 09:43:26;;;;;;;8.15;7.00;;;11.40;99.90;;;;;;4981125;28;20123;-88
2021/10/08 09:45:55;;;;;;;8.80;7.90;;;11.60;99.90;;;;;;4945095;28;20077;-88
2021/10/08 09:48:25;;;;;;;9.70;8.73;;;11.60;99.90;;;;;;4949399;28;20062;-88
2021/10/08 09:51:16;;;;;;;7.97;7.18;;;11.70;99.90;;;;;;4963678;28;20440;-89
2021/10/08 09:53:46;;;;;;;10.27;9.27;;;11.80;99.90;;;;;;4965165;28;20045;-88
2021/10/08 09:56:41;;;;;;;10.75;7.70;;;11.80;99.90;;;;;;4980794;28;20037;-88
2021/10/08 09:59:10;;;;;;;7.82;6.85;;;11.90;99.90;;;;;;4998130;28;20677;-88
2021/10/08 10:01:43;;;;;;;10.95;7.78;;;12.00;99.90;;;;;;5002150;28;20513;-88
2021/10/08 10:04:10;;;;;;;7.63;6.88;;;12.20;99.90;;;;;;4982160;28;20102;-88
2021/10/08 10:06:42;;;;;;;;;;;12.40;99.90;;;;;;4977772;28;20046;-88
2021/10/08 10:09:09;;;;;;;9.57;7.85;;;12.50;99.90;;;;;;5005650;28;19922;-88
2021/10/08 10:11:36;;;;;;;9.70;8.63;;;12.60;99.90;;;;;;4969206;28;20060;-89
2021/10/08 10:14:04;;;;;;;8.57;7.78;;;12.60;99.90;;;;;;5003700;28;20058;-89
2021/10/08 10:16:33;;;;;;;9.98;8.18;;;12.60;99.90;;;;;;5005931;28;20612;-88
2021/10/08 10:19:02;;;;;;;10.90;9.88;;;12.70;99.90;;;;;;5005493;28;20061;-88
2021/10/08 10:21:32;;;;;;;10.80;9.70;;;12.60;99.90;;;;;;4990456;28;20077;-88
2021/10/08 10:24:01;;;;;;;8.38;7.55;;;12.60;99.90;;;;;;5003311;28;20034;-88
2021/10/08 10:26:30;;;;;;;10.25;9.27;;;12.50;99.90;;;;;;4999763;28;20049;-89
2021/10/08 10:28:59;;;;;;;11.40;9.47;;;12.50;99.90;;;;;;5003582;28;20096;-88
2021/10/08 10:31:27;;;;;;;10.73;9.57;;;12.50;99.90;;;;;;5010011;28;20352;-88
2021/10/08 10:34:01;;;;;;;10.73;9.38;;;12.50;99.90;;;;;;4987055;28;20041;-88
2021/10/08 10:36:32;;;;;;;10.02;9.02;;;12.60;99.90;;;;;;4987758;28;20380;-88
2021/10/08 10:39:11;;;;;;;9.38;8.43;;;12.60;99.90;;;;;;4968395;28;20046;-88
2021/10/08 10:41:40;;;;;;;11.32;9.30;;;12.70;99.90;;;;;;4968600;28;20380;-88
2021/10/08 10:44:18;;;;;;;9.93;8.95;;;12.70;99.90;;;;;;4950060;28;20051;-88
2021/10/08 10:47:02;;;;;;;11.13;9.93;;;12.70;99.90;;;;;;4975182;28;20048;-88
2021/10/08 10:49:40;;;;;;;11.43;9.75;;;12.90;99.90;;;;;;4978450;28;20042;-88
2021/10/08 10:52:12;;;;;;;11.05;9.95;;;12.90;99.90;;;;;;4966498;28;20101;-88
2021/10/08 10:54:52;;;;;;;12.50;10.07;;;12.90;99.90;;;;;;4971573;28;20046;-88
2021/10/08 10:57:19;;;;;;;12.30;9.55;;;12.90;99.90;;;;;;4978370;28;20065;-88
2021/10/08 10:59:46;;;;;;;9.88;8.88;;;12.90;99.90;;;;;;4969026;28;20046;-88
2021/10/08 11:02:16;;;;;;;13.38;11.32;;;13.00;99.90;;;;;;4982959;28;20104;-88
2021/10/08 11:05:25;;;;;;;16.00;11.30;;;12.90;99.90;;;;;;4970221;28;20069;-88
2021/10/08 11:08:12;;;;;;;12.02;10.50;;;13.00;99.90;;;;;;4947521;28;20054;-88
2021/10/08 11:11:02;;;;;;;13.98;11.68;;;13.00;99.90;;;;;;4984606;28;20045;-88
2021/10/08 11:13:35;;;;;;;12.88;10.77;;;13.10;99.90;;;;;;4967263;28;20069;-88
2021/10/08 11:16:12;;;;;;;12.60;11.15;;;13.10;99.90;;;;;;4967341;28;20808;-88
2021/10/08 11:18:39;;;;;;;15.43;12.77;;;13.20;99.90;;;;;;4982629;28;20476;-88
2021/10/08 11:21:08;;;;;;;15.38;12.68;;;13.20;99.90;;;;;;4967752;28;20488;-88
2021/10/08 11:23:37;;;;;;;12.70;11.32;;;13.20;99.90;;;;;;4969152;28;20049;-88
2021/10/08 11:26:12;;;;;;;15.52;13.25;;;13.20;99.90;;;;;;4961069;28;20201;-88
2021/10/08 11:28:42;;;;;;;17.13;11.23;;;13.20;99.90;;;;;;965334;28;10002060;-88
2021/10/08 11:31:15;;;;;;;17.30;14.60;;;13.20;99.90;;;;;;4981668;28;20046;-88
2021/10/08 11:33:49;;;;;;;15.30;12.13;;;13.20;99.90;;;;;;4981719;28;20041;-88
2021/10/08 11:36:25;;;;;;;17.00;13.90;;;13.10;99.90;;;;;;4986276;28;20046;-88
2021/10/08 11:39:08;;;;;;;18.75;13.82;;;13.00;99.90;;;;;;4968293;28;20133;-88
2021/10/08 11:41:36;;;;;;;17.40;13.85;;;13.00;99.90;;;;;;5010071;28;20045;-88
2021/10/08 11:44:07;;;;;;;15.05;13.52;;;13.00;99.90;;;;;;4987428;28;20058;-88
2021/10/08 11:46:53;;;;;;;15.63;13.73;;;13.10;99.90;;;;;;4994459;28;20054;-88
2021/10/08 11:52:00;;;;;;;20.35;13.77;;;13.10;99.90;;;;;;4997982;28;20057;-87
2021/10/08 11:54:27;;;;;;;15.50;13.88;;;13.10;99.90;;;;;;4980112;28;20042;-88
2021/10/08 11:57:05;;;;;;;16.35;13.68;;;13.20;99.90;;;;;;5007622;28;20045;-88
2021/10/08 11:59:32;;;;;;;18.20;15.75;;;13.20;99.90;;;;;;4995978;28;20042;-88
2021/10/08 12:02:15;;;;;;;17.20;15.02;;;13.20;99.90;;;;;;4989940;28;20416;-88
2021/10/08 12:05:00;;;;;;;17.42;14.82;;;13.20;99.90;;;;;;4990650;28;20081;-88
2021/10/08 12:07:37;;;;;;;17.65;15.70;;;13.20;99.90;;;;;;4994651;28;20477;-87
2021/10/08 12:10:14;;;;;;;19.83;14.93;;;13.30;99.90;;;;;;4977681;28;20057;-88
2021/10/08 12:12:56;;;;;;;19.63;14.50;;;13.30;99.90;;;;;;5007638;28;20057;-88
2021/10/08 12:15:28;;;;;;;19.77;15.43;;;13.30;99.90;;;;;;4990802;28;20046;-88
2021/10/08 12:18:01;;;;;;;19.10;16.15;;;13.30;99.90;;;;;;4987502;28;20038;-87
2021/10/08 12:20:33;;;;;;;18.38;13.55;;;13.50;99.90;;;;;;4996552;28;20046;-87
2021/10/08 12:23:24;;;;;;;16.65;14.73;;;13.60;99.90;;;;;;5004278;28;20128;-88
2021/10/08 12:25:54;;;;;;;16.60;14.82;;;13.60;99.90;;;;;;4990015;28;20062;-87
2021/10/08 12:28:24;;;;;;;15.95;14.30;;;13.70;99.90;;;;;;5008636;28;20054;-88
2021/10/08 12:31:00;;;;;;;18.33;15.40;;;13.60;99.90;;;;;;5005673;28;20061;-88
2021/10/08 12:33:36;;;;;;;20.30;15.93;;;13.60;99.90;;;;;;4989337;28;20569;-88
2021/10/08 12:36:23;;;;;;;16.33;14.65;;;13.60;99.90;;;;;;5003459;28;20080;-88
2021/10/08 12:38:59;;;;;;;16.52;13.65;;;13.70;99.90;;;;;;5008567;28;20053;-88
2021/10/08 12:41:43;;;;;;;17.48;14.20;;;13.60;99.90;;;;;;5008520;28;20060;-87
2021/10/08 12:44:36;;;;;;;17.80;14.55;;;13.40;99.90;;;;;;5004377;28;20041;-88
2021/10/08 12:47:13;;;;;;;21.75;14.00;;;13.40;99.90;;;;;;4980882;28;20559;-88
2021/10/08 12:50:01;;;;;;;21.15;18.40;;;13.30;99.90;;;;;;5000953;28;20606;-88
2021/10/08 12:52:48;;;;;;;18.92;16.70;;;13.30;99.90;;;;;;4987922;28;20050;-88
2021/10/08 12:55:19;;;;;;;19.17;16.60;;;13.30;99.90;;;;;;5010503;28;20050;-88
2021/10/08 12:58:04;;;;;;;17.33;14.88;;;13.20;99.90;;;;;;5004002;28;20065;-88
2021/10/08 13:00:39;;;;;;;20.95;15.75;;;13.20;99.90;;;;;;4968059;28;20054;-88
2021/10/08 13:03:26;;;;;;;25.67;17.17;;;13.10;99.90;;;;;;4969135;28;20545;-87
2021/10/08 13:05:54;;;;;;;23.70;17.10;;;13.10;99.90;;;;;;5003005;28;20065;-88